sensor_id;sensor_type;location;lat;lon;timestamp;pressure;altitude;pressure_sealevel;temperature;humidity
1926;BME280;964;42.606;23.588;2023-07-28T00:01:37;94630.63;;;34.79;24.12
1926;BME280;964;42.606;23.588;2023-07-28T00:04:04;94623.63;;;34.78;23.78
1926;BME280;964;42.606;23.588;2023-07-28T00:06:32;94623.09;;;34.85;23.94
1926;BME280;964;42.606;23.588;2023-07-28T00:08:59;94628.06;;;34.92;24.14
1926;BME280;964;42.606;23.588;2023-07-28T00:11:26;94622.34;;;34.84;23.98
1926;BME280;964;42.606;23.588;2023-07-28T00:13:52;94629.66;;;34.71;24.09
1926;BME280;964;42.606;23.588;2023-07-28T00:16:20;94616.56;;;34.88;23.52
1926;BME280;964;42.606;23.588;2023-07-28T00:18:46;94623.69;;;34.17;24.71
1926;BME280;964;42.606;23.588;2023-07-28T00:21:13;94620.66;;;34.42;24.24
1926;BME280;964;42.606;23.588;2023-07-28T00:23:39;94623.63;;;34.78;24.30
1926;BME280;964;42.606;23.588;2023-07-28T00:26:06;94617.63;;;34.74;23.79
1926;BME280;964;42.606;23.588;2023-07-28T00:28:33;94627.66;;;34.66;23.98
1926;BME280;964;42.606;23.588;2023-07-28T00:30:59;94625.81;;;34.96;24.13
1926;BME280;964;42.606;23.588;2023-07-28T00:33:27;94617.03;;;35.03;23.53
1926;BME280;964;42.606;23.588;2023-07-28T00:35:54;94612.88;;;34.63;23.96
1926;BME280;964;42.606;23.588;2023-07-28T00:38:21;94617.63;;;34.52;23.86
1926;BME280;964;42.606;23.588;2023-07-28T00:40:48;94604.38;;;34.44;24.08
1926;BME280;964;42.606;23.588;2023-07-28T00:43:14;94614.38;;;33.92;24.45
1926;BME280;964;42.606;23.588;2023-07-28T00:45:41;94623.88;;;33.69;24.66
1926;BME280;964;42.606;23.588;2023-07-28T00:48:11;94627.38;;;33.75;24.57
1926;BME280;964;42.606;23.588;2023-07-28T00:50:41;94627.91;;;34.18;24.69
1926;BME280;964;42.606;23.588;2023-07-28T00:53:08;94636.66;;;34.50;24.28
1926;BME280;964;42.606;23.588;2023-07-28T00:55:34;94632.69;;;34.34;24.31
1926;BME280;964;42.606;23.588;2023-07-28T00:58:01;94633.69;;;34.14;24.49
1926;BME280;964;42.606;23.588;2023-07-28T01:00:28;94625.66;;;33.94;24.43
1926;BME280;964;42.606;23.588;2023-07-28T01:02:55;94624.63;;;33.75;24.91
1926;BME280;964;42.606;23.588;2023-07-28T01:05:27;94622.16;;;33.88;24.94
1926;BME280;964;42.606;23.588;2023-07-28T01:08:01;94631.63;;;33.76;25.36
1926;BME280;964;42.606;23.588;2023-07-28T01:10:31;94625.63;;;33.72;25.33
1926;BME280;964;42.606;23.588;2023-07-28T01:12:58;94622.63;;;33.70;25.60
1926;BME280;964;42.606;23.588;2023-07-28T01:15:25;94625.66;;;34.05;25.67
1926;BME280;964;42.606;23.588;2023-07-28T01:17:52;94625.16;;;34.01;25.06
1926;BME280;964;42.606;23.588;2023-07-28T01:20:18;94619.66;;;34.01;25.36
1926;BME280;964;42.606;23.588;2023-07-28T01:23:05;94610.63;;;33.73;25.24
1926;BME280;964;42.606;23.588;2023-07-28T01:25:42;94620.63;;;33.76;25.36
1926;BME280;964;42.606;23.588;2023-07-28T01:28:12;94614.16;;;34.01;24.84
1926;BME280;964;42.606;23.588;2023-07-28T01:30:39;94617.91;;;34.04;24.80
1926;BME280;964;42.606;23.588;2023-07-28T01:33:07;94617.63;;;33.85;25.04
1926;BME280;964;42.606;23.588;2023-07-28T01:35:35;94617.88;;;33.70;25.09
1926;BME280;964;42.606;23.588;2023-07-28T01:38:02;94611.38;;;33.68;25.03
1926;BME280;964;42.606;23.588;2023-07-28T01:40:29;94611.34;;;33.62;25.33
1926;BME280;964;42.606;23.588;2023-07-28T01:42:55;94611.59;;;33.59;25.57
1926;BME280;964;42.606;23.588;2023-07-28T01:45:24;94611.63;;;33.70;25.60
1926;BME280;964;42.606;23.588;2023-07-28T01:47:50;94610.13;;;33.69;25.37
1926;BME280;964;42.606;23.588;2023-07-28T01:50:17;94600.16;;;33.77;25.04
1926;BME280;964;42.606;23.588;2023-07-28T01:52:44;94603.13;;;33.79;25.17
1926;BME280;964;42.606;23.588;2023-07-28T01:55:10;94596.91;;;34.06;24.78
1926;BME280;964;42.606;23.588;2023-07-28T01:57:38;94602.31;;;33.56;25.58
1926;BME280;964;42.606;23.588;2023-07-28T02:00:06;94607.28;;;33.30;25.70
1926;BME280;964;42.606;23.588;2023-07-28T02:02:34;94615.16;;;33.05;26.06
1926;BME280;964;42.606;23.588;2023-07-28T02:05:01;94609.31;;;32.87;26.20
1926;BME280;964;42.606;23.588;2023-07-28T02:07:29;94602.84;;;33.55;25.49
1926;BME280;964;42.606;23.588;2023-07-28T02:09:56;94594.09;;;33.50;25.62
1926;BME280;964;42.606;23.588;2023-07-28T02:12:22;94600.59;;;33.47;25.51
1926;BME280;964;42.606;23.588;2023-07-28T02:14:49;94616.00;;;33.28;25.79
1926;BME280;964;42.606;23.588;2023-07-28T02:17:15;94614.56;;;33.49;25.56
1926;BME280;964;42.606;23.588;2023-07-28T02:19:43;94612.13;;;33.63;25.26
1926;BME280;964;42.606;23.588;2023-07-28T02:22:10;94607.81;;;33.45;25.17
1926;BME280;964;42.606;23.588;2023-07-28T02:24:37;94621.34;;;32.95;25.80
1926;BME280;964;42.606;23.588;2023-07-28T02:27:04;94615.50;;;33.24;25.77
1926;BME280;964;42.606;23.588;2023-07-28T02:29:30;94611.59;;;32.88;25.93
1926;BME280;964;42.606;23.588;2023-07-28T02:31:57;94619.44;;;33.12;25.54
1926;BME280;964;42.606;23.588;2023-07-28T02:34:24;94616.25;;;33.25;25.42
1926;BME280;964;42.606;23.588;2023-07-28T02:36:52;94616.56;;;33.43;25.27
1926;BME280;964;42.606;23.588;2023-07-28T02:39:18;94620.03;;;33.38;25.56
1926;BME280;964;42.606;23.588;2023-07-28T02:41:45;94621.13;;;33.69;25.17
1926;BME280;964;42.606;23.588;2023-07-28T02:44:12;94614.09;;;33.62;25.43
1926;BME280;964;42.606;23.588;2023-07-28T02:46:39;94621.13;;;33.69;25.25
1926;BME280;964;42.606;23.588;2023-07-28T02:49:05;94623.13;;;33.63;25.36
1926;BME280;964;42.606;23.588;2023-07-28T02:51:32;94620.81;;;33.50;25.29
1926;BME280;964;42.606;23.588;2023-07-28T02:54:01;94625.44;;;33.16;25.57
1926;BME280;964;42.606;23.588;2023-07-28T02:56:29;94626.84;;;32.95;25.48
1926;BME280;964;42.606;23.588;2023-07-28T02:59:00;94622.88;;;33.66;24.70
1926;BME280;964;42.606;23.588;2023-07-28T03:01:29;94625.59;;;32.53;25.64
1926;BME280;964;42.606;23.588;2023-07-28T03:03:58;94625.22;;;33.14;25.25
1926;BME280;964;42.606;23.588;2023-07-28T03:06:24;94628.94;;;33.11;24.91
1926;BME280;964;42.606;23.588;2023-07-28T03:08:51;94620.66;;;33.87;24.36
1926;BME280;964;42.606;23.588;2023-07-28T03:11:19;94619.56;;;33.57;24.72
1926;BME280;964;42.606;23.588;2023-07-28T03:13:46;94615.25;;;33.22;25.08
1926;BME280;964;42.606;23.588;2023-07-28T03:16:13;94611.09;;;33.60;24.41
1926;BME280;964;42.606;23.588;2023-07-28T03:18:39;94615.38;;;33.78;24.53
1926;BME280;964;42.606;23.588;2023-07-28T03:21:09;94618.91;;;33.84;24.69
1926;BME280;964;42.606;23.588;2023-07-28T03:23:35;94621.16;;;33.80;24.49
1926;BME280;964;42.606;23.588;2023-07-28T03:26:02;94622.81;;;33.49;24.64
1926;BME280;964;42.606;23.588;2023-07-28T03:28:30;94627.91;;;34.01;24.48
1926;BME280;964;42.606;23.588;2023-07-28T03:30:56;94628.41;;;33.99;24.10
1926;BME280;964;42.606;23.588;2023-07-28T03:33:23;94632.38;;;33.76;24.19
1926;BME280;964;42.606;23.588;2023-07-28T03:35:50;94632.66;;;33.95;23.92
1926;BME280;964;42.606;23.588;2023-07-28T03:38:16;94634.34;;;33.70;24.30
1926;BME280;964;42.606;23.588;2023-07-28T03:40:43;94642.50;;;33.31;24.70
1926;BME280;964;42.606;23.588;2023-07-28T03:43:10;94646.91;;;33.12;24.86
1926;BME280;964;42.606;23.588;2023-07-28T03:45:38;94642.06;;;33.61;24.50
1926;BME280;964;42.606;23.588;2023-07-28T03:48:05;94643.59;;;33.62;24.16
1926;BME280;964;42.606;23.588;2023-07-28T03:50:32;94641.16;;;33.97;23.92
1926;BME280;964;42.606;23.588;2023-07-28T03:52:58;94636.91;;;34.02;24.09
1926;BME280;964;42.606;23.588;2023-07-28T03:55:25;94642.78;;;33.56;24.56
1926;BME280;964;42.606;23.588;2023-07-28T03:57:52;94645.13;;;33.63;24.35
1926;BME280;964;42.606;23.588;2023-07-28T04:00:18;94648.13;;;33.81;24.30
1926;BME280;964;42.606;23.588;2023-07-28T04:02:47;94651.91;;;34.06;23.69
1926;BME280;964;42.606;23.588;2023-07-28T04:05:13;94642.16;;;34.55;23.84
1926;BME280;964;42.606;23.588;2023-07-28T04:07:40;94647.66;;;34.05;24.31
1926;BME280;964;42.606;23.588;2023-07-28T04:10:07;94645.63;;;33.78;24.35
1926;BME280;964;42.606;23.588;2023-07-28T04:12:34;94648.91;;;33.87;24.28
1926;BME280;964;42.606;23.588;2023-07-28T04:15:00;94650.91;;;33.98;24.57
1926;BME280;964;42.606;23.588;2023-07-28T04:17:27;94646.19;;;34.37;24.13
1926;BME280;964;42.606;23.588;2023-07-28T04:19:55;94638.69;;;34.21;24.17
1926;BME280;964;42.606;23.588;2023-07-28T04:22:22;94641.16;;;34.64;23.57
1926;BME280;964;42.606;23.588;2023-07-28T04:24:49;94644.66;;;34.47;24.15
1926;BME280;964;42.606;23.588;2023-07-28T04:27:16;94653.69;;;34.42;24.27
1926;BME280;964;42.606;23.588;2023-07-28T04:29:43;94649.59;;;34.99;23.93
1926;BME280;964;42.606;23.588;2023-07-28T04:32:09;94661.28;;;35.27;23.84
1926;BME280;964;42.606;23.588;2023-07-28T04:34:36;94657.31;;;35.75;23.54
1926;BME280;964;42.606;23.588;2023-07-28T04:37:05;94652.09;;;35.60;23.60
1926;BME280;964;42.606;23.588;2023-07-28T04:39:31;94656.41;;;34.59;24.47
1926;BME280;964;42.606;23.588;2023-07-28T04:41:58;94666.16;;;34.10;24.96
1926;BME280;964;42.606;23.588;2023-07-28T04:44:25;94657.31;;;35.75;23.57
1926;BME280;964;42.606;23.588;2023-07-28T04:46:51;94654.63;;;35.58;23.35
1926;BME280;964;42.606;23.588;2023-07-28T04:49:18;94652.59;;;36.05;23.68
1926;BME280;964;42.606;23.588;2023-07-28T04:51:46;94651.59;;;36.08;22.62
1926;BME280;964;42.606;23.588;2023-07-28T04:54:14;94652.16;;;36.31;22.95
1926;BME280;964;42.606;23.588;2023-07-28T04:56:41;94652.41;;;36.63;22.82
1926;BME280;964;42.606;23.588;2023-07-28T04:59:07;94654.47;;;36.81;23.13
1926;BME280;964;42.606;23.588;2023-07-28T05:01:34;94658.59;;;36.69;22.42
1926;BME280;964;42.606;23.588;2023-07-28T05:04:01;94646.84;;;36.38;22.69
1926;BME280;964;42.606;23.588;2023-07-28T05:06:27;94653.78;;;36.99;22.79
1926;BME280;964;42.606;23.588;2023-07-28T05:08:54;94652.06;;;36.96;22.29
1926;BME280;964;42.606;23.588;2023-07-28T05:11:22;94654.31;;;36.73;22.99
1926;BME280;964;42.606;23.588;2023-07-28T05:13:49;94658.34;;;36.43;23.23
1926;BME280;964;42.606;23.588;2023-07-28T05:16:15;94654.41;;;36.62;22.33
1926;BME280;964;42.606;23.588;2023-07-28T05:18:42;94654.50;;;37.05;22.09
1926;BME280;964;42.606;23.588;2023-07-28T05:21:09;94652.13;;;37.58;22.01
1926;BME280;964;42.606;23.588;2023-07-28T05:23:35;94656.06;;;37.81;21.20
1926;BME280;964;42.606;23.588;2023-07-28T05:26:02;94662.06;;;37.23;21.86
1926;BME280;964;42.606;23.588;2023-07-28T05:28:33;94658.81;;;36.47;22.48
1926;BME280;964;42.606;23.588;2023-07-28T05:31:04;94655.34;;;37.19;21.70
1926;BME280;964;42.606;23.588;2023-07-28T05:33:30;94657.81;;;36.98;21.89
1926;BME280;964;42.606;23.588;2023-07-28T05:36:01;94652.16;;;37.33;21.07
1926;BME280;964;42.606;23.588;2023-07-28T05:38:28;94654.53;;;37.43;21.01
1926;BME280;964;42.606;23.588;2023-07-28T05:40:58;94650.28;;;37.42;21.08
1926;BME280;964;42.606;23.588;2023-07-28T05:43:26;94653.63;;;37.96;20.99
1926;BME280;964;42.606;23.588;2023-07-28T05:45:54;94647.31;;;38.14;21.16
1926;BME280;964;42.606;23.588;2023-07-28T05:48:20;94647.19;;;37.51;21.24
1926;BME280;964;42.606;23.588;2023-07-28T05:50:47;94650.69;;;37.70;21.03
1926;BME280;964;42.606;23.588;2023-07-28T05:53:14;94646.28;;;37.80;20.86
1926;BME280;964;42.606;23.588;2023-07-28T05:55:40;94634.94;;;38.15;20.59
1926;BME280;964;42.606;23.588;2023-07-28T05:58:07;94641.84;;;38.41;20.26
1926;BME280;964;42.606;23.588;2023-07-28T06:00:33;94629.81;;;38.51;20.08
1926;BME280;964;42.606;23.588;2023-07-28T06:03:01;94633.59;;;38.54;19.72
1926;BME280;964;42.606;23.588;2023-07-28T06:05:29;94634.34;;;38.81;19.85
1926;BME280;964;42.606;23.588;2023-07-28T06:07:55;94630.63;;;38.91;19.86
1926;BME280;964;42.606;23.588;2023-07-28T06:10:24;94629.91;;;39.04;21.02
1926;BME280;964;42.606;23.588;2023-07-28T06:12:51;94629.03;;;39.22;19.82
1926;BME280;964;42.606;23.588;2023-07-28T06:15:18;94616.94;;;39.59;19.14
1926;BME280;964;42.606;23.588;2023-07-28T06:17:44;94613.38;;;39.38;19.67
1926;BME280;964;42.606;23.588;2023-07-28T06:20:12;94612.69;;;40.12;19.85
1926;BME280;964;42.606;23.588;2023-07-28T06:22:39;94625.31;;;39.80;19.80
1926;BME280;964;42.606;23.588;2023-07-28T06:25:06;94618.25;;;39.79;19.38
1926;BME280;964;42.606;23.588;2023-07-28T06:27:33;94617.69;;;39.59;19.32
1926;BME280;964;42.606;23.588;2023-07-28T06:30:01;94611.34;;;40.47;19.33
1926;BME280;964;42.606;23.588;2023-07-28T06:32:27;94601.78;;;40.84;18.45
1926;BME280;964;42.606;23.588;2023-07-28T06:34:54;94609.34;;;39.93;19.19
1926;BME280;964;42.606;23.588;2023-07-28T06:37:22;94601.56;;;40.54;19.93
1926;BME280;964;42.606;23.588;2023-07-28T06:39:48;94603.06;;;39.46;19.85
1926;BME280;964;42.606;23.588;2023-07-28T06:42:16;94604.13;;;40.52;19.16
1926;BME280;964;42.606;23.588;2023-07-28T06:44:49;94613.03;;;39.41;19.91
1926;BME280;964;42.606;23.588;2023-07-28T06:47:15;94613.34;;;39.24;20.19
1926;BME280;964;42.606;23.588;2023-07-28T06:49:42;94608.66;;;38.67;20.45
1926;BME280;964;42.606;23.588;2023-07-28T06:52:09;94598.09;;;40.33;19.62
1926;BME280;964;42.606;23.588;2023-07-28T06:54:37;94604.53;;;39.94;19.96
1926;BME280;964;42.606;23.588;2023-07-28T06:57:04;94596.56;;;40.73;18.70
1926;BME280;964;42.606;23.588;2023-07-28T06:59:31;94603.19;;;40.70;19.15
1926;BME280;964;42.606;23.588;2023-07-28T07:01:58;94594.16;;;41.05;18.20
1926;BME280;964;42.606;23.588;2023-07-28T07:04:25;94597.19;;;41.66;17.84
1926;BME280;964;42.606;23.588;2023-07-28T07:06:51;94601.19;;;41.93;18.30
1926;BME280;964;42.606;23.588;2023-07-28T07:09:18;94600.22;;;40.68;19.07
1926;BME280;964;42.606;23.588;2023-07-28T07:11:46;94597.53;;;42.21;18.40
1926;BME280;964;42.606;23.588;2023-07-28T07:14:13;94593.97;;;41.47;18.44
1926;BME280;964;42.606;23.588;2023-07-28T07:16:40;94592.88;;;41.50;18.30
1926;BME280;964;42.606;23.588;2023-07-28T07:19:07;94594.41;;;41.66;17.90
1926;BME280;964;42.606;23.588;2023-07-28T07:21:34;94592.47;;;41.89;18.08
1926;BME280;964;42.606;23.588;2023-07-28T07:24:02;94597.03;;;41.64;18.91
1926;BME280;964;42.606;23.588;2023-07-28T07:26:29;94590.06;;;41.93;17.52
1926;BME280;964;42.606;23.588;2023-07-28T07:28:57;94584.81;;;43.04;17.29
1926;BME280;964;42.606;23.588;2023-07-28T07:31:24;94596.56;;;42.57;17.97
1926;BME280;964;42.606;23.588;2023-07-28T07:33:51;94598.97;;;42.15;18.04
1926;BME280;964;42.606;23.588;2023-07-28T07:36:18;94597.13;;;42.85;16.81
1926;BME280;964;42.606;23.588;2023-07-28T07:38:45;94590.78;;;42.92;17.08
1926;BME280;964;42.606;23.588;2023-07-28T07:41:13;94592.53;;;42.65;17.28
1926;BME280;964;42.606;23.588;2023-07-28T07:43:41;94596.78;;;42.51;17.66
1926;BME280;964;42.606;23.588;2023-07-28T07:46:09;94592.72;;;42.37;16.97
1926;BME280;964;42.606;23.588;2023-07-28T07:48:36;94580.81;;;43.77;16.70
1926;BME280;964;42.606;23.588;2023-07-28T07:51:03;94585.28;;;43.72;16.20
1926;BME280;964;42.606;23.588;2023-07-28T07:53:29;94592.72;;;43.77;16.38
1926;BME280;964;42.606;23.588;2023-07-28T07:55:56;94599.75;;;42.83;16.87
1926;BME280;964;42.606;23.588;2023-07-28T07:58:23;94592.34;;;43.81;16.45
1926;BME280;964;42.606;23.588;2023-07-28T08:00:49;94600.59;;;43.24;16.48
1926;BME280;964;42.606;23.588;2023-07-28T08:03:18;94595.44;;;43.92;15.68
1926;BME280;964;42.606;23.588;2023-07-28T08:05:44;94597.41;;;43.27;16.83
1926;BME280;964;42.606;23.588;2023-07-28T08:08:11;94593.28;;;44.58;16.32
1926;BME280;964;42.606;23.588;2023-07-28T08:10:40;94595.19;;;44.55;15.36
1926;BME280;964;42.606;23.588;2023-07-28T08:13:07;94591.97;;;45.01;15.04
1926;BME280;964;42.606;23.588;2023-07-28T08:15:34;94587.03;;;45.26;14.80
1926;BME280;964;42.606;23.588;2023-07-28T08:18:00;94592.59;;;45.60;15.35
1926;BME280;964;42.606;23.588;2023-07-28T08:20:31;94591.69;;;44.72;14.94
1926;BME280;964;42.606;23.588;2023-07-28T08:22:57;94583.88;;;44.70;14.94
1926;BME280;964;42.606;23.588;2023-07-28T08:25:24;94589.63;;;45.58;14.36
1926;BME280;964;42.606;23.588;2023-07-28T08:27:51;94591.47;;;44.95;14.67
1926;BME280;964;42.606;23.588;2023-07-28T08:30:18;94583.91;;;45.39;14.50
1926;BME280;964;42.606;23.588;2023-07-28T08:32:45;94588.78;;;45.65;14.36
1926;BME280;964;42.606;23.588;2023-07-28T08:35:12;94586.41;;;45.35;14.98
1926;BME280;964;42.606;23.588;2023-07-28T08:37:40;94587.69;;;45.00;14.77
1926;BME280;964;42.606;23.588;2023-07-28T08:40:09;94571.69;;;45.61;13.98
1926;BME280;964;42.606;23.588;2023-07-28T08:42:38;94574.19;;;46.47;13.89
1926;BME280;964;42.606;23.588;2023-07-28T08:45:06;94575.69;;;46.67;14.08
1926;BME280;964;42.606;23.588;2023-07-28T08:47:33;94578.75;;;45.62;14.43
1926;BME280;964;42.606;23.588;2023-07-28T08:50:00;94579.22;;;45.86;14.81
1926;BME280;964;42.606;23.588;2023-07-28T08:52:27;94571.16;;;47.01;14.06
1926;BME280;964;42.606;23.588;2023-07-28T08:54:55;94571.50;;;46.49;15.42
1926;BME280;964;42.606;23.588;2023-07-28T08:57:22;94562.03;;;47.39;15.24
1926;BME280;964;42.606;23.588;2023-07-28T08:59:48;94558.75;;;47.42;14.61
1926;BME280;964;42.606;23.588;2023-07-28T09:02:16;94551.22;;;47.54;14.38
1926;BME280;964;42.606;23.588;2023-07-28T09:04:44;94562.63;;;47.28;14.10
1926;BME280;964;42.606;23.588;2023-07-28T09:07:11;94553.59;;;46.91;14.71
1926;BME280;964;42.606;23.588;2023-07-28T09:09:39;94544.75;;;46.85;14.65
1926;BME280;964;42.606;23.588;2023-07-28T09:12:08;94542.22;;;47.08;14.82
1926;BME280;964;42.606;23.588;2023-07-28T09:14:35;94523.59;;;48.01;13.42
1926;BME280;964;42.606;23.588;2023-07-28T09:17:06;94524.09;;;48.49;13.39
1926;BME280;964;42.606;23.588;2023-07-28T09:19:33;94524.59;;;47.55;13.55
1926;BME280;964;42.606;23.588;2023-07-28T09:22:01;94520.78;;;47.22;13.44
1926;BME280;964;42.606;23.588;2023-07-28T09:24:31;94506.44;;;47.97;13.24
1926;BME280;964;42.606;23.588;2023-07-28T09:26:59;94504.25;;;48.47;13.15
1926;BME280;964;42.606;23.588;2023-07-28T09:29:27;94507.34;;;47.90;13.39
1926;BME280;964;42.606;23.588;2023-07-28T09:32:03;94501.97;;;48.55;13.71
1926;BME280;964;42.606;23.588;2023-07-28T09:34:30;94499.69;;;48.42;13.57
1926;BME280;964;42.606;23.588;2023-07-28T09:36:58;94499.75;;;48.63;13.65
1926;BME280;964;42.606;23.588;2023-07-28T09:39:26;94494.63;;;48.93;13.66
1926;BME280;964;42.606;23.588;2023-07-28T09:41:53;94482.00;;;49.27;12.89
1926;BME280;964;42.606;23.588;2023-07-28T09:44:23;94476.72;;;48.46;13.92
1926;BME280;964;42.606;23.588;2023-07-28T09:46:52;94475.28;;;50.11;13.08
1926;BME280;964;42.606;23.588;2023-07-28T09:49:21;94477.78;;;48.62;13.21
1926;BME280;964;42.606;23.588;2023-07-28T09:51:48;94465.53;;;49.00;12.67
1926;BME280;964;42.606;23.588;2023-07-28T09:54:19;94464.38;;;49.94;12.19
1926;BME280;964;42.606;23.588;2023-07-28T09:56:50;94461.19;;;50.11;13.10
1926;BME280;964;42.606;23.588;2023-07-28T09:59:19;94457.13;;;49.79;13.74
1926;BME280;964;42.606;23.588;2023-07-28T10:01:47;94459.72;;;50.82;13.09
1926;BME280;964;42.606;23.588;2023-07-28T10:04:16;94467.19;;;51.14;12.11
1926;BME280;964;42.606;23.588;2023-07-28T10:06:42;94463.00;;;50.41;12.27
1926;BME280;964;42.606;23.588;2023-07-28T10:09:10;94462.41;;;51.30;11.35
1926;BME280;964;42.606;23.588;2023-07-28T10:11:37;94457.97;;;49.82;11.75
1926;BME280;964;42.606;23.588;2023-07-28T10:14:07;94463.16;;;49.29;12.43
1926;BME280;964;42.606;23.588;2023-07-28T10:16:38;94462.31;;;50.06;11.52
1926;BME280;964;42.606;23.588;2023-07-28T10:19:05;94454.75;;;50.57;11.28
1926;BME280;964;42.606;23.588;2023-07-28T10:21:39;94441.00;;;51.78;11.48
1926;BME280;964;42.606;23.588;2023-07-28T10:24:06;94458.25;;;50.09;12.20
1926;BME280;964;42.606;23.588;2023-07-28T10:26:35;94453.47;;;49.77;12.25
1926;BME280;964;42.606;23.588;2023-07-28T10:29:12;94449.38;;;50.49;11.88
1926;BME280;964;42.606;23.588;2023-07-28T10:31:50;94436.66;;;51.63;12.94
1926;BME280;964;42.606;23.588;2023-07-28T10:34:17;94452.41;;;49.37;13.73
1926;BME280;964;42.606;23.588;2023-07-28T10:36:46;94442.19;;;49.77;12.84
1926;BME280;964;42.606;23.588;2023-07-28T10:39:14;94449.00;;;50.32;12.11
1926;BME280;964;42.606;23.588;2023-07-28T10:42:00;94435.97;;;51.37;13.38
1926;BME280;964;42.606;23.588;2023-07-28T10:44:28;94430.66;;;51.43;13.00
1926;BME280;964;42.606;23.588;2023-07-28T10:46:56;94428.44;;;51.03;13.48
1926;BME280;964;42.606;23.588;2023-07-28T10:49:24;94431.13;;;49.81;12.76
1926;BME280;964;42.606;23.588;2023-07-28T10:51:52;94443.09;;;48.69;13.36
1926;BME280;964;42.606;23.588;2023-07-28T10:54:19;94426.72;;;50.01;13.16
1926;BME280;964;42.606;23.588;2023-07-28T10:56:47;94432.59;;;49.58;12.73
1926;BME280;964;42.606;23.588;2023-07-28T10:59:14;94421.28;;;51.02;12.50
1926;BME280;964;42.606;23.588;2023-07-28T11:01:42;94421.81;;;50.62;11.87
1926;BME280;964;42.606;23.588;2023-07-28T11:04:10;94419.31;;;51.05;12.24
1926;BME280;964;42.606;23.588;2023-07-28T11:06:37;94407.38;;;51.70;11.87
1926;BME280;964;42.606;23.588;2023-07-28T11:09:06;94409.66;;;49.99;12.52
1926;BME280;964;42.606;23.588;2023-07-28T11:11:34;94415.25;;;49.18;13.38
1926;BME280;964;42.606;23.588;2023-07-28T11:14:01;94396.06;;;51.70;13.11
1926;BME280;964;42.606;23.588;2023-07-28T11:16:28;94390.16;;;51.53;12.60
1926;BME280;964;42.606;23.588;2023-07-28T11:18:55;94394.06;;;50.95;11.97
1926;BME280;964;42.606;23.588;2023-07-28T11:21:23;94396.66;;;50.91;12.21
1926;BME280;964;42.606;23.588;2023-07-28T11:23:50;94386.41;;;51.09;12.21
1926;BME280;964;42.606;23.588;2023-07-28T11:26:18;94374.69;;;51.67;11.70
1926;BME280;964;42.606;23.588;2023-07-28T11:28:46;94386.44;;;51.23;12.18
1926;BME280;964;42.606;23.588;2023-07-28T11:31:13;94388.63;;;50.48;12.64
1926;BME280;964;42.606;23.588;2023-07-28T11:33:39;94371.34;;;51.71;12.62
1926;BME280;964;42.606;23.588;2023-07-28T11:36:06;94364.72;;;51.53;12.11
1926;BME280;964;42.606;23.588;2023-07-28T11:38:33;94374.88;;;51.05;12.67
1926;BME280;964;42.606;23.588;2023-07-28T11:41:00;94374.38;;;51.75;12.11
1926;BME280;964;42.606;23.588;2023-07-28T11:43:29;94370.41;;;51.80;11.92
1926;BME280;964;42.606;23.588;2023-07-28T11:45:56;94360.00;;;52.39;12.48
1926;BME280;964;42.606;23.588;2023-07-28T11:48:23;94350.13;;;52.40;11.93
1926;BME280;964;42.606;23.588;2023-07-28T11:50:49;94363.50;;;51.83;11.82
1926;BME280;964;42.606;23.588;2023-07-28T11:53:21;94359.78;;;52.21;12.38
1926;BME280;964;42.606;23.588;2023-07-28T11:55:48;94362.03;;;51.82;11.99
1926;BME280;964;42.606;23.588;2023-07-28T11:58:15;94342.84;;;51.94;12.26
1926;BME280;964;42.606;23.588;2023-07-28T12:00:43;94352.81;;;51.95;11.92
1926;BME280;964;42.606;23.588;2023-07-28T12:03:11;94350.38;;;51.48;11.51
1926;BME280;964;42.606;23.588;2023-07-28T12:05:39;94348.50;;;51.53;11.99
1926;BME280;964;42.606;23.588;2023-07-28T12:08:06;94343.38;;;51.50;12.23
1926;BME280;964;42.606;23.588;2023-07-28T12:10:34;94336.97;;;51.35;12.57
1926;BME280;964;42.606;23.588;2023-07-28T12:13:05;94355.81;;;50.18;12.40
1926;BME280;964;42.606;23.588;2023-07-28T12:15:34;94335.59;;;51.36;12.15
1926;BME280;964;42.606;23.588;2023-07-28T12:18:07;94344.41;;;51.42;11.73
1926;BME280;964;42.606;23.588;2023-07-28T12:20:36;94338.16;;;51.71;12.45
1926;BME280;964;42.606;23.588;2023-07-28T12:23:03;94337.28;;;51.96;11.88
1926;BME280;964;42.606;23.588;2023-07-28T12:25:30;94341.88;;;51.35;12.29
1926;BME280;964;42.606;23.588;2023-07-28T12:27:57;94331.09;;;51.31;12.26
1926;BME280;964;42.606;23.588;2023-07-28T12:30:24;94325.25;;;52.09;12.05
1926;BME280;964;42.606;23.588;2023-07-28T12:32:51;94320.97;;;51.67;12.09
1926;BME280;964;42.606;23.588;2023-07-28T12:35:19;94340.75;;;50.50;12.34
1926;BME280;964;42.606;23.588;2023-07-28T12:37:49;94318.81;;;52.22;11.93
1926;BME280;964;42.606;23.588;2023-07-28T12:40:15;94321.25;;;51.19;12.12
1926;BME280;964;42.606;23.588;2023-07-28T12:42:42;94323.47;;;52.02;11.60
1926;BME280;964;42.606;23.588;2023-07-28T12:45:09;94328.88;;;51.16;12.48
1926;BME280;964;42.606;23.588;2023-07-28T12:47:36;94315.47;;;52.55;11.88
1926;BME280;964;42.606;23.588;2023-07-28T12:50:03;94316.84;;;52.99;11.34
1926;BME280;964;42.606;23.588;2023-07-28T12:52:33;94313.44;;;51.99;11.82
1926;BME280;964;42.606;23.588;2023-07-28T12:55:00;94306.63;;;51.50;11.90
1926;BME280;964;42.606;23.588;2023-07-28T12:57:26;94314.66;;;50.13;12.72
1926;BME280;964;42.606;23.588;2023-07-28T12:59:53;94307.56;;;50.88;12.97
1926;BME280;964;42.606;23.588;2023-07-28T13:02:20;94299.31;;;50.92;12.90
1926;BME280;964;42.606;23.588;2023-07-28T13:04:46;94304.22;;;50.91;12.43
1926;BME280;964;42.606;23.588;2023-07-28T13:07:13;94300.75;;;51.32;12.85
1926;BME280;964;42.606;23.588;2023-07-28T13:09:40;94310.16;;;50.33;12.72
1926;BME280;964;42.606;23.588;2023-07-28T13:12:08;94307.06;;;50.66;12.94
1926;BME280;964;42.606;23.588;2023-07-28T13:14:35;94309.59;;;49.17;13.49
1926;BME280;964;42.606;23.588;2023-07-28T13:17:01;94296.75;;;50.71;12.88
1926;BME280;964;42.606;23.588;2023-07-28T13:19:28;94293.22;;;50.84;12.29
1926;BME280;964;42.606;23.588;2023-07-28T13:21:54;94300.69;;;50.40;13.08
1926;BME280;964;42.606;23.588;2023-07-28T13:24:21;94281.56;;;51.99;12.24